Time;durP1;ratioP1;P1;durP2;ratioP2;P2;SDS_P1;SDS_P2;PMS_P1;PMS_P2;Temp;Humidity;BMP_temperature;BMP_pressure;BME280_temperature;BME280_humidity;BME280_pressure;Samples;Min_cycle;Max_cycle;Signal;HPM_P1;HPM_P2
2023/08/24 00:02:02;;;;;;;2.27;2.07;;;17.50;1.00;;;;;;4970279;28;20206;-84
2023/08/24 00:04:28;;;;;;;2.90;2.30;;;17.40;1.00;;;;;;4971338;28;20187;-83
2023/08/24 00:06:54;;;;;;;4.00;2.60;;;17.50;1.00;;;;;;4987991;28;20310;-83
2023/08/24 00:09:20;;;;;;;2.90;2.20;;;17.50;99.90;;;;;;4990557;28;20214;-84
2023/08/24 00:11:46;;;;;;;2.47;2.20;;;17.60;99.90;;;;;;4991387;28;20184;-83
2023/08/24 00:14:11;;;;;;;3.50;2.33;;;17.50;99.90;;;;;;4993670;28;20187;-84
2023/08/24 00:16:37;;;;;;;4.43;2.20;;;17.40;99.90;;;;;;4976504;28;20685;-83
2023/08/24 00:19:03;;;;;;;3.80;2.57;;;17.30;33.20;;;;;;4993723;28;20575;-84
2023/08/24 00:21:28;;;;;;;2.37;2.17;;;17.30;1.00;;;;;;4975938;28;20266;-83
2023/08/24 00:23:54;;;;;;;2.97;2.30;;;17.10;1.00;;;;;;4976252;28;20175;-84
2023/08/24 00:26:20;;;;;;;3.27;2.37;;;17.00;1.00;;;;;;4993568;28;20192;-84
2023/08/24 00:28:46;;;;;;;3.23;2.10;;;17.10;1.00;;;;;;4976337;28;20177;-84
2023/08/24 00:31:12;;;;;;;3.47;2.60;;;17.30;1.00;;;;;;4975908;28;20176;-84
2023/08/24 00:33:37;;;;;;;2.43;2.23;;;17.30;99.90;;;;;;4993485;28;20245;-83
2023/08/24 00:36:05;;;;;;;2.70;2.37;;;17.20;1.00;;;;;;4976235;28;20192;-84
2023/08/24 00:38:31;;;;;;;4.37;2.50;;;17.30;1.00;;;;;;4975951;28;20729;-83
2023/08/24 00:40:58;;;;;;;6.23;2.50;;;17.10;99.90;;;;;;4993171;28;20619;-83
2023/08/24 00:43:25;;;;;;;2.40;2.20;;;17.10;1.00;;;;;;4993650;28;20203;-84
2023/08/24 00:45:52;;;;;;;3.50;2.60;;;17.10;1.00;;;;;;4976045;28;20195;-83
2023/08/24 00:48:19;;;;;;;2.50;2.30;;;17.00;99.90;;;;;;4976055;28;20214;-83
2023/08/24 00:50:44;;;;;;;4.43;2.33;;;17.00;1.00;;;;;;4975734;28;20172;-84
2023/08/24 00:53:10;;;;;;;2.83;2.20;;;16.80;1.00;;;;;;4977364;28;20236;-84
2023/08/24 00:55:36;;;;;;;3.00;2.30;;;16.80;1.00;;;;;;4975743;28;20699;-84
2023/08/24 00:58:03;;;;;;;4.03;2.60;;;16.90;1.00;;;;;;4993283;28;20316;-84
2023/08/24 01:00:28;;;;;;;2.40;2.20;;;16.90;1.00;;;;;;4996964;28;20167;-83
2023/08/24 01:02:55;;;;;;;4.37;2.30;;;16.90;1.00;;;;;;4989756;28;20175;-84
2023/08/24 01:05:20;;;;;;;2.53;2.30;;;17.00;1.00;;;;;;4975728;28;20212;-84
2023/08/24 01:07:47;;;;;;;2.50;2.30;;;17.10;1.00;;;;;;4976001;28;20198;-83
2023/08/24 01:10:12;;;;;;;3.67;2.17;;;17.00;1.00;;;;;;4975461;28;20190;-84
2023/08/24 01:13:07;;;;;;;2.93;2.40;;;17.00;1.00;;;;;;4993069;28;20179;-83
2023/08/24 01:15:42;;;;;;;3.80;2.40;;;16.90;99.90;;;;;;4992938;28;20641;-83
2023/08/24 01:18:15;;;;;;;2.60;2.40;;;16.70;1.00;;;;;;4975546;28;20233;-83
2023/08/24 01:20:42;;;;;;;4.40;2.40;;;16.60;1.00;;;;;;4992714;28;20251;-83
2023/08/24 01:23:37;;;;;;;2.90;2.33;;;16.60;1.00;;;;;;4975083;28;20587;-84
2023/08/24 01:26:17;;;;;;;3.10;2.40;;;16.60;1.00;;;;;;5002149;28;20282;-84
2023/08/24 01:28:45;;;;;;;3.10;2.30;;;16.60;1.00;;;;;;4975530;28;20185;-84
2023/08/24 01:31:11;;;;;;;2.40;2.20;;;16.80;1.00;;;;;;4975067;28;20182;-83
2023/08/24 01:33:36;;;;;;;2.50;2.30;;;16.90;1.00;;;;;;4982490;28;20266;-84
2023/08/24 01:36:02;;;;;;;3.90;2.50;;;16.90;1.00;;;;;;4975337;28;20226;-83
2023/08/24 01:38:29;;;;;;;4.53;2.50;;;16.90;1.00;;;;;;4984663;28;20574;-83
2023/08/24 01:41:10;;;;;;;2.90;2.27;;;16.90;1.00;;;;;;4991959;28;20180;-84
2023/08/24 01:43:36;;;;;;;2.77;2.50;;;16.70;1.00;;;;;;4992647;28;20662;-83
2023/08/24 01:46:07;;;;;;;2.93;2.40;;;16.60;1.00;;;;;;4975190;28;20709;-83
2023/08/24 01:48:33;;;;;;;3.83;2.47;;;16.50;1.00;;;;;;4975094;28;20219;-83
2023/08/24 01:51:00;;;;;;;3.47;2.60;;;16.50;1.00;;;;;;4977434;28;20211;-83
2023/08/24 01:53:28;;;;;;;4.43;2.50;;;16.40;1.00;;;;;;4994045;28;20176;-84
2023/08/24 01:55:53;;;;;;;2.60;2.40;;;16.30;1.00;;;;;;4980406;28;20218;-83
2023/08/24 01:58:20;;;;;;;4.13;2.33;;;16.20;1.00;;;;;;4975298;28;20199;-83
2023/08/24 02:00:45;;;;;;;3.73;2.60;;;16.10;1.00;;;;;;4992181;28;20176;-84
2023/08/24 02:03:11;;;;;;;3.40;2.63;;;16.10;99.90;;;;;;4992284;28;20222;-83
2023/08/24 02:05:37;;;;;;;2.70;2.50;;;16.10;95.70;;;;;;4974953;28;20215;-84
2023/08/24 02:08:02;;;;;;;3.77;2.70;;;16.00;70.10;;;;;;4975020;28;20249;-83
2023/08/24 02:10:28;;;;;;;3.83;2.53;;;16.00;99.90;;;;;;4974224;28;20225;-83
2023/08/24 02:12:54;;;;;;;3.10;2.60;;;16.00;79.70;;;;;;4975052;28;20187;-83
2023/08/24 02:15:19;;;;;;;4.93;2.70;;;16.00;77.60;;;;;;4974987;28;20223;-84
2023/08/24 02:17:45;;;;;;;2.90;2.70;;;16.00;99.90;;;;;;4992375;28;20202;-83
2023/08/24 02:20:11;;;;;;;3.67;2.50;;;15.90;99.90;;;;;;4974504;28;20643;-83
2023/08/24 02:22:37;;;;;;;6.90;3.10;;;15.90;99.90;;;;;;4992229;28;20180;-83
2023/08/24 02:25:04;;;;;;;2.77;2.50;;;15.90;99.90;;;;;;4992036;28;20217;-84
2023/08/24 02:27:31;;;;;;;3.93;3.07;;;16.00;99.90;;;;;;4992108;28;20182;-83
2023/08/24 02:29:56;;;;;;;2.87;2.57;;;16.00;99.90;;;;;;4974060;28;20642;-84
2023/08/24 02:32:22;;;;;;;3.20;2.63;;;16.10;99.90;;;;;;4974343;28;20180;-84
2023/08/24 02:34:48;;;;;;;4.40;2.57;;;16.10;91.90;;;;;;4990735;28;20172;-83
2023/08/24 02:37:13;;;;;;;3.73;2.53;;;16.00;99.90;;;;;;4974642;28;20188;-84
2023/08/24 02:39:39;;;;;;;3.23;2.70;;;16.00;99.90;;;;;;4974230;28;20248;-82
2023/08/24 02:42:05;;;;;;;3.60;2.40;;;16.00;99.90;;;;;;4974288;28;20549;-83
2023/08/24 02:44:31;;;;;;;3.50;2.60;;;16.00;99.90;;;;;;4974544;28;20184;-84
2023/08/24 02:46:57;;;;;;;3.60;2.67;;;16.30;70.20;;;;;;4991715;28;20261;-84
2023/08/24 02:49:23;;;;;;;3.33;2.60;;;16.40;1.00;;;;;;4991703;28;20180;-84
2023/08/24 02:51:48;;;;;;;4.63;2.53;;;16.20;1.00;;;;;;4973701;28;20266;-83
2023/08/24 02:54:14;;;;;;;3.67;2.47;;;16.20;49.10;;;;;;4975060;28;20179;-83
2023/08/24 02:56:40;;;;;;;6.60;3.00;;;16.00;90.10;;;;;;4974354;28;20203;-84
2023/08/24 02:59:06;;;;;;;3.63;2.63;;;16.00;99.30;;;;;;4991743;28;20286;-84
2023/08/24 03:01:31;;;;;;;3.43;2.83;;;15.80;99.90;;;;;;4974199;28;20179;-83
2023/08/24 03:03:57;;;;;;;2.90;2.60;;;15.80;36.40;;;;;;4991870;28;20168;-84
2023/08/24 03:06:24;;;;;;;3.37;2.60;;;15.70;99.90;;;;;;4991535;28;20215;-84
2023/08/24 03:08:49;;;;;;;2.80;2.60;;;15.90;99.90;;;;;;4991518;28;20186;-84
2023/08/24 03:11:15;;;;;;;3.50;2.80;;;16.00;95.40;;;;;;4991081;28;20176;-84
2023/08/24 03:13:41;;;;;;;4.40;2.60;;;16.00;38.70;;;;;;4991539;28;20164;-83
2023/08/24 03:16:08;;;;;;;3.50;3.10;;;16.00;99.90;;;;;;4974006;28;20223;-84
2023/08/24 03:18:33;;;;;;;4.00;3.27;;;15.90;17.70;;;;;;5009208;28;20206;-83
2023/08/24 03:20:59;;;;;;;3.07;2.77;;;15.90;99.90;;;;;;4993106;28;20536;-83
2023/08/24 03:23:25;;;;;;;4.90;3.00;;;15.90;99.90;;;;;;4993423;28;20262;-84
2023/08/24 03:25:51;;;;;;;3.10;2.80;;;15.80;99.90;;;;;;5000481;28;20188;-83
2023/08/24 03:28:16;;;;;;;3.13;2.40;;;15.80;99.90;;;;;;4988754;28;20171;-84
2023/08/24 03:30:50;;;;;;;4.53;2.40;;;15.70;99.90;;;;;;4990832;28;20225;-83
2023/08/24 03:33:16;;;;;;;2.60;2.40;;;15.60;99.90;;;;;;4973729;28;20233;-83
2023/08/24 03:35:42;;;;;;;5.30;2.67;;;15.50;99.90;;;;;;4996723;28;20195;-83
2023/08/24 03:38:08;;;;;;;3.17;2.50;;;15.50;99.90;;;;;;4973563;28;20176;-82
2023/08/24 03:40:34;;;;;;;4.57;2.70;;;15.50;99.90;;;;;;4973176;28;20220;-84
2023/08/24 03:43:03;;;;;;;3.83;2.80;;;15.50;99.90;;;;;;4990554;28;20167;-84
2023/08/24 03:45:28;;;;;;;4.83;2.73;;;15.50;99.90;;;;;;4990925;28;20203;-84
2023/08/24 03:47:54;;;;;;;3.37;2.80;;;15.50;99.90;;;;;;4990581;28;20176;-84
2023/08/24 03:50:21;;;;;;;3.67;2.90;;;15.60;99.90;;;;;;4990493;28;20178;-84
2023/08/24 03:52:47;;;;;;;4.60;2.77;;;15.50;99.90;;;;;;4990713;28;20184;-83
2023/08/24 03:55:13;;;;;;;4.17;2.77;;;15.60;99.90;;;;;;4973442;28;20195;-83
2023/08/24 03:57:38;;;;;;;3.90;3.23;;;15.70;99.90;;;;;;4975112;28;20187;-84
2023/08/24 04:00:10;;;;;;;3.03;2.73;;;15.60;99.90;;;;;;4990012;28;20199;-84
2023/08/24 04:02:37;;;;;;;4.17;2.80;;;15.50;99.90;;;;;;4973384;28;20183;-83
2023/08/24 04:05:03;;;;;;;3.17;2.80;;;15.50;99.90;;;;;;4990323;28;20200;-84
2023/08/24 04:07:29;;;;;;;3.10;2.80;;;15.60;99.90;;;;;;4973821;28;20179;-81
2023/08/24 04:09:54;;;;;;;4.57;2.40;;;16.10;99.90;;;;;;4991645;28;20209;-82
2023/08/24 04:12:20;;;;;;;4.00;2.40;;;17.30;1.00;;;;;;4973859;28;20184;-81
2023/08/24 04:14:46;;;;;;;2.53;2.33;;;18.60;91.00;;;;;;4973640;28;20220;-81
2023/08/24 04:17:11;;;;;;;3.07;2.40;;;19.30;99.90;;;;;;4991214;28;20191;-81
2023/08/24 04:19:40;;;;;;;2.80;2.20;;;19.30;1.00;;;;;;4990725;28;20751;-79
2023/08/24 04:22:05;;;;;;;2.70;2.13;;;19.00;1.00;;;;;;4991593;28;20202;-80
2023/08/24 04:24:31;;;;;;;4.47;2.50;;;18.90;1.00;;;;;;4974003;28;20172;-80
2023/08/24 04:26:56;;;;;;;3.20;2.83;;;18.60;7.40;;;;;;4974493;28;20313;-81
2023/08/24 04:29:22;;;;;;;3.27;2.70;;;18.60;99.90;;;;;;4974420;28;20176;-80
2023/08/24 04:31:47;;;;;;;2.50;2.30;;;19.10;1.00;;;;;;4973609;28;20718;-81
2023/08/24 04:34:13;;;;;;;3.70;2.60;;;19.10;1.00;;;;;;4991629;28;20184;-80
2023/08/24 04:36:39;;;;;;;3.50;2.47;;;19.00;99.90;;;;;;4995595;28;20218;-82
2023/08/24 04:39:04;;;;;;;3.03;2.30;;;18.30;99.90;;;;;;4995762;28;20282;-81
2023/08/24 04:41:30;;;;;;;5.23;2.50;;;17.60;1.00;;;;;;4990996;28;20183;-80
2023/08/24 04:43:55;;;;;;;3.07;2.20;;;17.20;99.90;;;;;;4990972;28;20167;-80
2023/08/24 04:46:21;;;;;;;4.43;2.37;;;18.10;99.90;;;;;;4973643;28;20188;-81
2023/08/24 04:48:46;;;;;;;3.83;2.20;;;18.80;99.90;;;;;;4974433;28;20187;-83
2023/08/24 04:51:12;;;;;;;2.27;2.03;;;19.30;1.00;;;;;;4972941;28;20191;-80
2023/08/24 04:53:37;;;;;;;2.40;2.20;;;19.10;1.00;;;;;;4990999;28;20199;-83
2023/08/24 04:56:03;;;;;;;2.50;2.30;;;19.20;1.00;;;;;;4990229;28;20230;-80
2023/08/24 04:58:29;;;;;;;3.83;2.07;;;19.10;1.00;;;;;;4991754;28;20282;-81
2023/08/24 05:00:55;;;;;;;3.10;2.23;;;19.80;1.00;;;;;;4976164;28;20268;-80
2023/08/24 05:03:21;;;;;;;3.53;2.20;;;19.90;1.00;;;;;;4975513;28;20534;-80
2023/08/24 05:05:47;;;;;;;3.23;2.60;;;19.80;1.00;;;;;;4994658;28;20232;-82
2023/08/24 05:08:13;;;;;;;2.70;2.50;;;19.20;1.00;;;;;;4976046;28;20175;-80
2023/08/24 05:10:38;;;;;;;4.40;2.40;;;19.20;1.00;;;;;;4975960;28;20176;-82
2023/08/24 05:13:04;;;;;;;2.97;2.40;;;19.10;1.00;;;;;;4976142;28;20172;-85
2023/08/24 05:15:30;;;;;;;5.90;2.80;;;19.40;1.00;;;;;;4975628;28;20566;-83
2023/08/24 05:17:56;;;;;;;3.03;2.63;;;19.30;24.50;;;;;;4975525;28;20176;-84
2023/08/24 05:20:28;;;;;;;4.53;2.70;;;19.00;99.90;;;;;;4975593;28;20204;-82
2023/08/24 05:22:57;;;;;;;3.27;2.97;;;18.90;1.00;;;;;;4993001;28;20191;-82
2023/08/24 05:25:23;;;;;;;3.03;2.80;;;18.70;99.90;;;;;;4992242;28;20562;-85
2023/08/24 05:27:49;;;;;;;5.30;2.97;;;18.30;99.90;;;;;;4993883;28;20250;-87
2023/08/24 05:30:14;;;;;;;4.10;2.50;;;18.00;1.00;;;;;;4974050;28;20183;-85
2023/08/24 05:32:40;;;;;;;3.08;2.28;;;18.80;1.00;;;;;;4992063;28;20599;-85
2023/08/24 05:35:06;;;;;;;4.27;2.70;;;19.70;99.90;;;;;;4974695;28;20228;-84
2023/08/24 05:37:32;;;;;;;4.33;2.70;;;19.90;99.90;;;;;;4975098;28;20184;-87
2023/08/24 05:39:59;;;;;;;3.87;2.50;;;20.10;1.00;;;;;;4973724;28;20666;-86
2023/08/24 05:42:25;;;;;;;3.67;2.70;;;20.20;99.90;;;;;;4975158;28;20168;-86
2023/08/24 05:44:51;;;;;;;4.15;3.08;;;20.10;1.00;;;;;;4992516;28;20168;-87
2023/08/24 05:47:16;;;;;;;3.08;2.67;;;19.90;99.90;;;;;;4974728;28;20171;-87
2023/08/24 05:49:42;;;;;;;6.25;3.05;;;19.70;99.90;;;;;;4991742;28;20172;-87
2023/08/24 05:52:08;;;;;;;5.50;2.92;;;19.60;99.90;;;;;;4991945;28;20274;-87
2023/08/24 05:54:33;;;;;;;3.20;2.60;;;19.40;1.00;;;;;;4975078;28;20187;-82
2023/08/24 05:57:00;;;;;;;4.50;2.75;;;19.70;99.90;;;;;;4992744;28;20241;-83
2023/08/24 05:59:26;;;;;;;3.97;2.60;;;19.90;1.00;;;;;;4992940;28;20228;-83
2023/08/24 06:01:52;;;;;;;3.67;3.20;;;20.00;1.00;;;;;;4992645;28;20168;-83
2023/08/24 06:04:18;;;;;;;3.83;3.20;;;19.70;71.60;;;;;;4975500;28;20175;-83
2023/08/24 06:06:43;;;;;;;3.47;3.15;;;19.20;1.00;;;;;;4975419;28;20207;-83
2023/08/24 06:09:09;;;;;;;3.88;3.00;;;18.70;99.90;;;;;;4975214;28;20535;-84
2023/08/24 06:11:35;;;;;;;3.88;3.05;;;18.40;1.00;;;;;;4992141;28;20168;-83
2023/08/24 06:14:01;;;;;;;3.35;3.05;;;19.10;1.00;;;;;;4975608;28;20266;-83
2023/08/24 06:16:27;;;;;;;4.13;3.22;;;19.70;1.00;;;;;;4992191;28;20245;-84
2023/08/24 06:18:53;;;;;;;5.65;3.50;;;20.20;99.90;;;;;;4974914;28;20199;-83
2023/08/24 06:21:19;;;;;;;3.72;3.28;;;19.90;99.90;;;;;;4992112;28;20209;-83
2023/08/24 06:23:44;;;;;;;4.47;2.92;;;19.60;50.10;;;;;;4975752;28;20182;-84
2023/08/24 06:26:10;;;;;;;4.25;3.05;;;20.20;99.90;;;;;;4975199;28;20188;-83
2023/08/24 06:28:36;;;;;;;7.95;3.90;;;20.00;1.00;;;;;;4975412;28;20250;-84
2023/08/24 06:31:01;;;;;;;5.18;3.33;;;19.70;99.90;;;;;;4976010;28;20279;-85
2023/08/24 06:33:31;;;;;;;4.75;3.53;;;19.90;99.90;;;;;;4993321;28;20171;-84
2023/08/24 06:35:59;;;;;;;5.72;3.60;;;19.60;1.00;;;;;;4975358;28;20196;-84
2023/08/24 06:38:25;;;;;;;4.72;3.85;;;19.60;1.00;;;;;;4991704;28;20203;-85
2023/08/24 06:40:51;;;;;;;3.47;3.17;;;19.30;1.00;;;;;;4973572;28;20176;-85
2023/08/24 06:43:17;;;;;;;5.68;4.10;;;19.30;1.00;;;;;;4973816;28;20180;-84
2023/08/24 06:45:48;;;;;;;7.00;4.75;;;19.30;1.00;;;;;;4991509;28;20743;-85
2023/08/24 06:48:13;;;;;;;5.47;4.45;;;19.10;99.90;;;;;;4973986;28;20317;-85
2023/08/24 06:50:39;;;;;;;4.70;4.30;;;18.90;99.90;;;;;;4990901;28;20250;-85
2023/08/24 06:53:05;;;;;;;4.95;4.40;;;19.10;51.10;;;;;;4973907;28;20211;-86
2023/08/24 06:55:30;;;;;;;5.25;4.30;;;19.00;99.90;;;;;;4973621;28;20188;-83
2023/08/24 06:57:56;;;;;;;5.93;4.47;;;19.00;1.00;;;;;;4973660;28;20211;-85
2023/08/24 07:00:22;;;;;;;5.15;4.65;;;18.90;1.00;;;;;;4973123;28;20208;-86
2023/08/24 07:02:49;;;;;;;5.03;4.53;;;18.90;1.00;;;;;;4991013;28;20185;-86
2023/08/24 07:05:18;;;;;;;7.10;5.38;;;19.00;1.00;;;;;;4990757;28;20282;-86
2023/08/24 07:07:45;;;;;;;5.28;4.78;;;19.10;1.00;;;;;;4991156;28;20203;-86
2023/08/24 07:10:11;;;;;;;7.35;4.65;;;19.30;1.00;;;;;;4972678;28;20255;-87
2023/08/24 07:12:37;;;;;;;5.70;4.45;;;19.60;1.00;;;;;;4973448;28;20700;-86
2023/08/24 07:15:04;;;;;;;7.55;4.18;;;20.10;1.00;;;;;;4973641;28;20190;-87
2023/08/24 07:17:30;;;;;;;5.22;4.00;;;20.20;1.00;;;;;;4973264;28;20180;-86
2023/08/24 07:19:55;;;;;;;6.88;4.68;;;20.30;1.00;;;;;;4972702;28;20195;-85
2023/08/24 07:22:21;;;;;;;7.57;5.13;;;20.40;99.90;;;;;;4972831;28;20172;-86
2023/08/24 07:24:52;;;;;;;6.53;3.90;;;20.10;1.00;;;;;;4973480;28;20203;-86
2023/08/24 07:27:18;;;;;;;7.07;3.85;;;20.00;99.90;;;;;;4973217;28;20262;-86
2023/08/24 07:29:43;;;;;;;9.68;4.75;;;20.00;1.00;;;;;;4990320;28;20259;-86
2023/08/24 07:32:09;;;;;;;4.97;4.57;;;20.00;99.90;;;;;;4973188;28;20275;-86
2023/08/24 07:34:34;;;;;;;6.00;4.82;;;20.20;1.00;;;;;;4973500;28;20172;-86
2023/08/24 07:37:00;;;;;;;5.43;4.45;;;20.30;1.00;;;;;;4990601;28;20202;-86
2023/08/24 07:39:25;;;;;;;6.97;4.18;;;20.10;1.00;;;;;;4990508;28;20191;-86
2023/08/24 07:41:51;;;;;;;5.72;3.55;;;20.30;99.90;;;;;;4972617;28;20172;-86
2023/08/24 07:44:17;;;;;;;5.78;4.15;;;20.80;1.00;;;;;;4973221;28;20220;-86
2023/08/24 07:46:42;;;;;;;5.00;4.25;;;20.70;1.00;;;;;;4973082;28;20199;-86
2023/08/24 07:49:08;;;;;;;5.20;4.60;;;20.60;1.00;;;;;;4972930;28;20176;-87
2023/08/24 07:51:34;;;;;;;4.65;3.92;;;20.40;1.00;;;;;;4972449;28;20532;-86
2023/08/24 07:54:00;;;;;;;8.30;4.15;;;20.30;1.00;;;;;;4990404;28;20182;-86
2023/08/24 07:56:25;;;;;;;5.32;4.20;;;20.60;1.00;;;;;;4990150;28;20192;-86
2023/08/24 07:58:51;;;;;;;6.45;4.55;;;20.90;13.10;;;;;;4972716;28;20226;-86
2023/08/24 08:01:17;;;;;;;5.65;3.88;;;20.90;1.00;;;;;;4972405;28;20692;-86
2023/08/24 08:03:42;;;;;;;5.20;3.42;;;21.00;1.00;;;;;;4990037;28;20573;-86
2023/08/24 08:06:08;;;;;;;7.30;4.07;;;20.90;1.00;;;;;;4990122;28;20213;-86
2023/08/24 08:08:33;;;;;;;6.30;3.75;;;20.80;1.00;;;;;;4990399;28;20258;-86
2023/08/24 08:11:01;;;;;;;3.70;3.05;;;20.90;99.90;;;;;;4971416;28;20180;-86
2023/08/24 08:13:28;;;;;;;4.97;3.50;;;20.90;1.00;;;;;;4972984;28;20183;-86
2023/08/24 08:15:53;;;;;;;4.05;3.30;;;21.10;1.00;;;;;;4989861;28;20230;-86
2023/08/24 08:18:19;;;;;;;4.35;3.17;;;21.20;91.70;;;;;;4990209;28;20180;-86
2023/08/24 08:20:45;;;;;;;3.90;3.22;;;21.20;34.50;;;;;;4972219;28;20642;-84
2023/08/24 08:23:10;;;;;;;3.50;2.85;;;21.50;99.90;;;;;;4972799;28;20626;-84
2023/08/24 08:25:36;;;;;;;4.10;3.20;;;21.60;1.00;;;;;;4972719;28;20240;-84
2023/08/24 08:28:01;;;;;;;5.80;3.53;;;21.70;1.00;;;;;;4990157;28;20176;-84
2023/08/24 08:30:27;;;;;;;4.63;3.30;;;21.70;1.00;;;;;;4972203;28;20262;-84
2023/08/24 08:32:54;;;;;;;3.72;3.20;;;21.80;1.00;;;;;;4972697;28;20172;-84
2023/08/24 08:35:21;;;;;;;3.38;3.08;;;21.70;1.00;;;;;;4975765;28;20736;-84
2023/08/24 08:37:49;;;;;;;4.63;3.20;;;21.70;1.00;;;;;;4993207;28;20194;-84
2023/08/24 08:40:15;;;;;;;5.05;3.25;;;21.50;1.00;;;;;;4975403;28;20199;-84
2023/08/24 08:42:41;;;;;;;4.25;3.05;;;21.60;1.00;;;;;;4975406;28;20172;-83
2023/08/24 08:45:09;;;;;;;3.65;3.28;;;21.70;1.00;;;;;;4975558;28;20655;-84
2023/08/24 08:47:35;;;;;;;4.57;3.90;;;21.90;1.00;;;;;;4975486;28;20172;-85
2023/08/24 08:50:05;;;;;;;5.82;4.50;;;21.90;1.00;;;;;;4974959;28;20183;-83
2023/08/24 08:52:33;;;;;;;5.00;4.50;;;21.90;1.00;;;;;;4975551;28;20229;-84
2023/08/24 08:55:00;;;;;;;9.32;4.55;;;21.80;1.00;;;;;;4993063;28;20188;-86
2023/08/24 08:57:26;;;;;;;5.68;4.40;;;21.80;1.00;;;;;;4993106;28;20183;-84
2023/08/24 08:59:52;;;;;;;6.40;4.30;;;21.90;98.20;;;;;;4992147;28;20207;-84
2023/08/24 09:02:21;;;;;;;4.95;4.15;;;22.10;99.90;;;;;;4975368;28;20172;-84
2023/08/24 09:04:50;;;;;;;6.60;4.10;;;22.20;1.00;;;;;;4992915;28;20187;-83
2023/08/24 09:07:16;;;;;;;4.75;3.17;;;22.30;99.90;;;;;;4975316;28;20270;-84
2023/08/24 09:09:42;;;;;;;4.88;4.25;;;22.40;1.00;;;;;;4991636;28;20260;-82
2023/08/24 09:12:08;;;;;;;6.40;4.40;;;22.50;1.00;;;;;;4975443;28;20184;-85
2023/08/24 09:14:34;;;;;;;6.38;4.45;;;22.40;99.90;;;;;;4992774;28;20172;-84
2023/08/24 09:17:00;;;;;;;7.00;3.78;;;22.30;94.00;;;;;;4992625;28;20214;-84
2023/08/24 09:19:30;;;;;;;5.18;4.07;;;22.30;99.90;;;;;;4975400;28;20222;-84
2023/08/24 09:22:01;;;;;;;4.63;4.22;;;22.70;1.00;;;;;;4974717;28;20262;-84
2023/08/24 09:24:35;;;;;;;6.60;4.35;;;23.10;99.90;;;;;;4975313;28;20178;-84
2023/08/24 09:27:14;;;;;;;5.40;4.90;;;23.40;1.00;;;;;;4992308;28;20688;-85
2023/08/24 09:29:40;;;;;;;5.55;4.40;;;23.60;1.00;;;;;;4974603;28;20183;-83
2023/08/24 09:32:08;;;;;;;4.82;4.43;;;23.90;99.90;;;;;;4975125;28;20592;-84
2023/08/24 09:34:36;;;;;;;6.20;4.60;;;24.00;99.90;;;;;;4975192;28;20225;-83
2023/08/24 09:37:04;;;;;;;6.35;4.30;;;24.30;33.70;;;;;;4974688;28;20670;-83
2023/08/24 09:39:29;;;;;;;5.30;4.30;;;24.50;14.70;;;;;;4974657;28;20233;-82
2023/08/24 09:42:02;;;;;;;4.45;4.00;;;24.50;1.00;;;;;;4991997;28;20176;-85
2023/08/24 09:44:28;;;;;;;4.05;3.60;;;24.70;1.00;;;;;;4974195;28;20191;-84
2023/08/24 09:46:54;;;;;;;4.85;3.60;;;24.90;99.90;;;;;;4992181;28;20192;-84
2023/08/24 09:49:20;;;;;;;3.85;3.45;;;25.20;1.00;;;;;;4992066;28;20206;-84
2023/08/24 09:51:46;;;;;;;3.97;3.45;;;25.50;1.00;;;;;;4974212;28;20262;-84
2023/08/24 09:54:13;;;;;;;4.30;3.30;;;25.70;1.00;;;;;;4974953;28;20176;-84
2023/08/24 09:56:41;;;;;;;4.32;3.70;;;25.90;99.90;;;;;;4974791;28;20195;-84
2023/08/24 09:59:18;;;;;;;6.22;4.05;;;26.10;1.00;;;;;;4974799;28;20208;-84
2023/08/24 10:01:47;;;;;;;5.72;3.28;;;26.30;1.00;;;;;;4991538;28;20175;-84
2023/08/24 10:04:14;;;;;;;6.30;3.13;;;26.50;99.90;;;;;;4992119;28;20191;-84
2023/08/24 10:06:41;;;;;;;4.13;3.40;;;26.60;99.90;;;;;;4974552;28;20226;-84
2023/08/24 10:09:08;;;;;;;5.70;3.60;;;26.60;1.00;;;;;;4991732;28;20168;-84
2023/08/24 10:11:42;;;;;;;7.05;3.58;;;26.70;1.00;;;;;;4991108;28;20208;-85
2023/08/24 10:14:19;;;;;;;4.07;2.78;;;26.90;1.00;;;;;;4992015;28;20210;-84
2023/08/24 10:16:46;;;;;;;4.80;3.10;;;26.90;99.90;;;;;;4992005;28;20279;-84
2023/08/24 10:19:13;;;;;;;2.95;2.55;;;27.10;1.00;;;;;;4974728;28;20632;-84
2023/08/24 10:21:40;;;;;;;4.13;2.60;;;27.30;99.90;;;;;;4975428;28;20176;-85
2023/08/24 10:24:08;;;;;;;5.05;2.38;;;27.30;99.90;;;;;;4991922;28;20168;-84
2023/08/24 10:26:34;;;;;;;4.63;2.42;;;27.00;33.20;;;;;;4991512;28;20199;-84
2023/08/24 10:29:00;;;;;;;3.75;2.30;;;27.20;99.90;;;;;;4992058;28;20180;-84
2023/08/24 10:31:26;;;;;;;3.00;2.10;;;27.40;99.90;;;;;;4991332;28;20167;-84
2023/08/24 10:33:54;;;;;;;5.13;2.10;;;27.60;99.90;;;;;;4974166;28;20214;-84
2023/08/24 10:36:22;;;;;;;3.15;1.92;;;27.70;99.90;;;;;;4991356;28;20203;-84
2023/08/24 10:38:48;;;;;;;3.85;2.03;;;27.50;1.00;;;;;;4974070;28;20204;-84
2023/08/24 10:41:14;;;;;;;3.28;2.15;;;27.30;1.00;;;;;;4973330;28;20180;-84
2023/08/24 10:43:49;;;;;;;2.88;2.00;;;27.40;1.00;;;;;;4991497;28;20167;-84
2023/08/24 10:46:16;;;;;;;3.85;2.20;;;27.50;1.00;;;;;;4991217;28;20187;-84
2023/08/24 10:48:42;;;;;;;3.38;2.28;;;27.80;1.00;;;;;;4973830;28;20186;-84
2023/08/24 10:51:20;;;;;;;2.55;2.00;;;28.20;1.00;;;;;;4973366;28;20292;-84
2023/08/24 10:53:48;;;;;;;3.88;2.00;;;28.30;1.00;;;;;;4974141;28;20562;-85
2023/08/24 10:56:16;;;;;;;2.83;2.10;;;28.40;99.90;;;;;;4990320;28;20206;-84
2023/08/24 10:58:43;;;;;;;4.25;2.30;;;28.50;99.90;;;;;;4973861;28;20203;-84
2023/08/24 11:01:17;;;;;;;4.28;2.00;;;28.20;99.90;;;;;;4973141;28;20203;-84
2023/08/24 11:03:55;;;;;;;2.80;1.77;;;28.50;99.90;;;;;;4973988;28;20167;-84
2023/08/24 11:06:28;;;;;;;4.10;2.50;;;28.40;99.90;;;;;;4974609;28;20299;-83
2023/08/24 11:09:13;;;;;;;2.30;2.00;;;28.50;99.90;;;;;;4974013;28;20183;-84
2023/08/24 11:11:40;;;;;;;2.42;1.98;;;28.20;99.90;;;;;;4989996;28;20188;-84
2023/08/24 11:14:17;;;;;;;3.30;2.20;;;28.20;99.90;;;;;;4973487;28;20179;-84
2023/08/24 11:16:45;;;;;;;2.63;1.92;;;28.60;99.90;;;;;;4991068;28;20199;-84
2023/08/24 11:19:14;;;;;;;2.65;2.03;;;29.10;99.90;;;;;;4990728;28;20230;-84
2023/08/24 11:21:41;;;;;;;2.75;2.10;;;28.70;99.90;;;;;;4973111;28;20168;-84
2023/08/24 11:24:08;;;;;;;2.35;1.98;;;28.90;99.90;;;;;;4973249;28;20175;-84
2023/08/24 11:26:34;;;;;;;2.60;2.20;;;29.10;99.90;;;;;;4990857;28;20225;-84
2023/08/24 11:29:04;;;;;;;2.15;1.95;;;29.20;99.90;;;;;;4973412;28;20669;-84
2023/08/24 11:31:30;;;;;;;2.83;2.10;;;29.10;99.90;;;;;;4990400;28;20218;-84
2023/08/24 11:33:56;;;;;;;2.75;2.30;;;29.20;99.90;;;;;;4973234;28;20207;-84
2023/08/24 11:36:23;;;;;;;2.58;2.13;;;29.10;99.90;;;;;;4990754;28;20212;-84
2023/08/24 11:38:52;;;;;;;3.53;2.25;;;29.10;99.90;;;;;;4972953;28;20622;-84
2023/08/24 11:41:18;;;;;;;2.35;2.15;;;29.10;99.90;;;;;;4972583;28;20267;-84
2023/08/24 11:43:47;;;;;;;3.35;2.10;;;29.10;99.90;;;;;;4990353;28;20179;-84
2023/08/24 11:46:15;;;;;;;6.32;2.35;;;29.30;99.90;;;;;;4990621;28;20192;-85
2023/08/24 11:48:41;;;;;;;2.90;1.90;;;29.30;99.90;;;;;;4990609;28;20189;-84
2023/08/24 11:51:14;;;;;;;3.20;2.13;;;29.40;99.90;;;;;;4990080;28;20642;-84
2023/08/24 11:53:42;;;;;;;2.47;2.20;;;29.30;99.90;;;;;;4990695;28;20180;-84
2023/08/24 11:56:16;;;;;;;2.67;2.15;;;29.50;99.90;;;;;;4973117;28;20337;-84
2023/08/24 11:58:43;;;;;;;4.53;2.20;;;29.80;99.90;;;;;;4972919;28;20283;-84
2023/08/24 12:01:11;;;;;;;3.63;2.50;;;29.70;99.90;;;;;;4972301;28;20527;-84
2023/08/24 12:03:40;;;;;;;2.80;2.28;;;29.70;99.90;;;;;;4972851;28;20176;-84
2023/08/24 12:06:13;;;;;;;3.17;2.20;;;29.70;99.90;;;;;;4972799;28;20214;-84
2023/08/24 12:08:41;;;;;;;3.25;2.08;;;30.00;99.90;;;;;;4993109;28;20172;-84
2023/08/24 12:11:20;;;;;;;2.33;2.13;;;30.20;99.90;;;;;;4975135;28;20180;-84
2023/08/24 12:13:49;;;;;;;3.20;2.30;;;30.30;99.90;;;;;;4993764;28;20174;-84
2023/08/24 12:16:16;;;;;;;2.45;2.17;;;30.50;99.90;;;;;;4993688;28;20199;-85
2023/08/24 12:18:56;;;;;;;2.50;2.20;;;30.50;99.90;;;;;;4976275;28;20283;-84
2023/08/24 12:21:23;;;;;;;2.53;2.33;;;30.00;99.90;;;;;;4975507;28;20217;-84
2023/08/24 12:24:00;;;;;;;2.90;2.35;;;29.70;99.90;;;;;;4993558;28;20653;-84
2023/08/24 12:26:29;;;;;;;2.55;2.25;;;29.60;99.90;;;;;;4993542;28;20191;-84
2023/08/24 12:29:00;;;;;;;4.20;2.40;;;29.80;99.90;;;;;;4993239;28;20642;-84
2023/08/24 12:31:30;;;;;;;2.95;2.45;;;30.10;99.90;;;;;;4993108;28;20168;-84
2023/08/24 12:34:01;;;;;;;3.50;2.20;;;30.00;99.90;;;;;;4975823;28;20196;-84
2023/08/24 12:36:27;;;;;;;2.75;2.10;;;29.80;99.90;;;;;;4993064;28;20688;-84
2023/08/24 12:38:53;;;;;;;6.10;2.60;;;30.10;99.90;;;;;;4975729;28;20226;-84
2023/08/24 12:41:18;;;;;;;5.13;2.40;;;30.00;99.90;;;;;;4992992;28;20573;-84
2023/08/24 12:43:44;;;;;;;3.67;2.20;;;29.80;99.90;;;;;;4975918;28;20611;-84
2023/08/24 12:46:09;;;;;;;3.47;2.20;;;29.60;99.90;;;;;;4993302;28;20607;-84
2023/08/24 12:48:35;;;;;;;3.97;2.13;;;29.70;99.90;;;;;;4975942;28;20180;-84
2023/08/24 12:51:00;;;;;;;2.78;2.25;;;29.80;99.90;;;;;;4992443;28;20266;-84